Airfield :
LOGIN :

Register | Disclaimer

   EN    FR    IT 

 










Legend :    VFR   Marginal VFR   IFR   Intensive IFR   Very Intensive IFR
Visi :
Ceiling :
>= 8 km
>= 3000ft
5 to 8 km
1000 to 3000 ft
1500m to 5 km
500 to 1000 ft
800 to 1500m
200 to 500 ft
< 800m
< 200 ft
Symbols :   Thunderstorms  Fog  Heavy snow  Heavy precipitations  Wind > 20 kt
SIGMETs :     Misc.  Thunderstorms  Icing  Turbulence  Mountain Waves  Volcanic Ashes







- Airport Elevation : 1115 ft
- IATA code : GRZ


LOWG - Graz

CURRENT METAR :
  • 190150Z AUTO 00000KT 9999 FEW022 BKN080 M05/M06 Q1020

EXPIRED METARs :
  • 190120Z AUTO 36003KT 320V030 9999 FEW048 BKN080 M05/M06 Q1021
  • 190050Z AUTO VRB02KT 0400 R17/P1500N R35/0600D FZBCFG SCT001 SCT050 M06/M07 Q1021
  • 190020Z AUTO 34002KT 0500 R17/1200U R35/0375N FZBCFG FEW000 SCT080 M06/M07 Q1020
  • 182350Z AUTO VRB01KT 0550 R17/0700U R35/0900D FZFG FEW000 M05/M06 Q1021
  • 182320Z VRB02KT 0500 R17/0900U R35/0400D FZFG FEW000 M06/M06 Q1021 TEMPO 1200 FZBCFG

TAF TAF LOWG
Valid from the 19 at 00:00 until the 20 at 00:00 UTC


182315Z 1900/1924 VRB02KT CAVOK TX00/1913Z TNM06/1903Z
TEMPO 1900/1908 0300 FZFG BKN001
PROB30
TEMPO 1902/1909 9999 BKN025
BECMG 1908/1910 17004KT 9999 SCT030 BKN060
BECMG 1918/1920 BKN020
PROB40
TEMPO 1921/1924 1200 FZBCFG OVC002
No reported NOTAMs for that airfield.



MET'MAP, your aeronautical weather chart ! - Copyright ORBIFLY December 2007 - Disclaimer

ORBIFLY MET'MAP TEAM :

Programming & Development : Alexandra Zaïnal
Concept & Development : Baudouin d'Aumeries
Co-Development & Prog : Marc-Olivier Méhu
Technical & hardware support : Manuel Goepfert

Contact : metmap@orbifly.com




SOURCES & CREDITS :

   NOAA